sensor_id;sensor_type;location;lat;lon;timestamp;P1;durP1;ratioP1;P2;durP2;ratioP2
59008;SDS011;44794;42.652;23.318;2023-06-10T00:02:25;44.58;;;27.80;;
59008;SDS011;44794;42.652;23.318;2023-06-10T00:04:51;37.83;;;26.92;;
59008;SDS011;44794;42.652;23.318;2023-06-10T00:07:17;34.90;;;25.80;;
59008;SDS011;44794;42.652;23.318;2023-06-10T00:09:42;36.22;;;26.00;;
59008;SDS011;44794;42.652;23.318;2023-06-10T00:12:08;36.95;;;25.55;;
59008;SDS011;44794;42.652;23.318;2023-06-10T00:14:36;37.22;;;26.88;;
59008;SDS011;44794;42.652;23.318;2023-06-10T00:17:03;36.40;;;25.45;;
59008;SDS011;44794;42.652;23.318;2023-06-10T00:19:28;38.42;;;25.63;;
59008;SDS011;44794;42.652;23.318;2023-06-10T00:21:55;32.95;;;23.00;;
59008;SDS011;44794;42.652;23.318;2023-06-10T00:24:21;32.08;;;22.63;;
59008;SDS011;44794;42.652;23.318;2023-06-10T00:26:47;30.52;;;21.77;;
59008;SDS011;44794;42.652;23.318;2023-06-10T00:29:12;29.90;;;19.73;;
59008;SDS011;44794;42.652;23.318;2023-06-10T00:31:39;30.23;;;20.85;;
59008;SDS011;44794;42.652;23.318;2023-06-10T00:34:04;30.63;;;20.65;;
59008;SDS011;44794;42.652;23.318;2023-06-10T00:36:30;28.52;;;20.52;;
59008;SDS011;44794;42.652;23.318;2023-06-10T00:38:56;28.52;;;21.55;;
59008;SDS011;44794;42.652;23.318;2023-06-10T00:41:22;28.88;;;21.08;;
59008;SDS011;44794;42.652;23.318;2023-06-10T00:43:47;30.95;;;20.05;;
59008;SDS011;44794;42.652;23.318;2023-06-10T00:46:13;29.33;;;20.42;;
59008;SDS011;44794;42.652;23.318;2023-06-10T00:48:39;27.92;;;19.88;;
59008;SDS011;44794;42.652;23.318;2023-06-10T00:51:05;28.30;;;19.60;;
59008;SDS011;44794;42.652;23.318;2023-06-10T00:53:34;28.73;;;20.17;;
59008;SDS011;44794;42.652;23.318;2023-06-10T00:56:04;28.58;;;19.45;;
59008;SDS011;44794;42.652;23.318;2023-06-10T00:58:29;30.85;;;20.20;;
59008;SDS011;44794;42.652;23.318;2023-06-10T01:00:56;31.35;;;20.45;;
59008;SDS011;44794;42.652;23.318;2023-06-10T01:03:22;30.75;;;20.40;;
59008;SDS011;44794;42.652;23.318;2023-06-10T01:05:50;34.28;;;22.02;;
59008;SDS011;44794;42.652;23.318;2023-06-10T01:08:27;32.80;;;22.85;;
59008;SDS011;44794;42.652;23.318;2023-06-10T01:10:59;30.35;;;22.00;;
59008;SDS011;44794;42.652;23.318;2023-06-10T01:13:26;30.92;;;23.48;;
59008;SDS011;44794;42.652;23.318;2023-06-10T01:15:57;37.20;;;24.20;;
59008;SDS011;44794;42.652;23.318;2023-06-10T01:18:29;36.83;;;24.58;;
59008;SDS011;44794;42.652;23.318;2023-06-10T01:20:55;32.72;;;22.73;;
59008;SDS011;44794;42.652;23.318;2023-06-10T01:23:21;31.48;;;22.77;;
59008;SDS011;44794;42.652;23.318;2023-06-10T01:25:54;29.63;;;21.63;;
59008;SDS011;44794;42.652;23.318;2023-06-10T01:28:31;32.25;;;21.10;;
59008;SDS011;44794;42.652;23.318;2023-06-10T01:31:10;26.42;;;19.50;;
59008;SDS011;44794;42.652;23.318;2023-06-10T01:33:51;26.33;;;19.80;;
59008;SDS011;44794;42.652;23.318;2023-06-10T01:36:18;28.35;;;20.20;;
59008;SDS011;44794;42.652;23.318;2023-06-10T01:38:47;27.08;;;20.67;;
59008;SDS011;44794;42.652;23.318;2023-06-10T01:41:17;27.92;;;21.33;;
59008;SDS011;44794;42.652;23.318;2023-06-10T01:43:45;28.67;;;20.50;;
59008;SDS011;44794;42.652;23.318;2023-06-10T01:46:11;30.80;;;21.67;;
59008;SDS011;44794;42.652;23.318;2023-06-10T01:48:37;25.80;;;20.63;;
59008;SDS011;44794;42.652;23.318;2023-06-10T01:51:03;32.40;;;20.55;;
59008;SDS011;44794;42.652;23.318;2023-06-10T01:53:28;26.25;;;19.75;;
59008;SDS011;44794;42.652;23.318;2023-06-10T01:55:54;29.33;;;20.88;;
59008;SDS011;44794;42.652;23.318;2023-06-10T01:58:19;24.73;;;19.73;;
59008;SDS011;44794;42.652;23.318;2023-06-10T02:00:45;27.65;;;19.13;;
59008;SDS011;44794;42.652;23.318;2023-06-10T02:03:10;28.02;;;19.27;;
59008;SDS011;44794;42.652;23.318;2023-06-10T02:05:36;27.45;;;18.73;;
59008;SDS011;44794;42.652;23.318;2023-06-10T02:08:01;30.15;;;21.92;;
59008;SDS011;44794;42.652;23.318;2023-06-10T02:10:27;31.15;;;21.33;;
59008;SDS011;44794;42.652;23.318;2023-06-10T02:12:52;28.00;;;20.33;;
59008;SDS011;44794;42.652;23.318;2023-06-10T02:15:18;30.38;;;21.08;;
59008;SDS011;44794;42.652;23.318;2023-06-10T02:17:43;28.40;;;21.52;;
59008;SDS011;44794;42.652;23.318;2023-06-10T02:20:10;29.75;;;21.50;;
59008;SDS011;44794;42.652;23.318;2023-06-10T02:22:36;31.83;;;22.13;;
59008;SDS011;44794;42.652;23.318;2023-06-10T02:25:02;31.95;;;22.58;;
59008;SDS011;44794;42.652;23.318;2023-06-10T02:27:28;31.90;;;21.52;;
59008;SDS011;44794;42.652;23.318;2023-06-10T02:29:55;31.58;;;22.33;;
59008;SDS011;44794;42.652;23.318;2023-06-10T02:32:21;35.42;;;21.83;;
59008;SDS011;44794;42.652;23.318;2023-06-10T02:34:46;32.58;;;21.20;;
59008;SDS011;44794;42.652;23.318;2023-06-10T02:37:14;29.70;;;20.63;;
59008;SDS011;44794;42.652;23.318;2023-06-10T02:39:39;28.85;;;20.88;;
59008;SDS011;44794;42.652;23.318;2023-06-10T02:42:05;26.88;;;20.40;;
59008;SDS011;44794;42.652;23.318;2023-06-10T02:44:31;28.85;;;19.98;;
59008;SDS011;44794;42.652;23.318;2023-06-10T02:46:57;25.20;;;19.48;;
59008;SDS011;44794;42.652;23.318;2023-06-10T02:49:22;24.98;;;18.15;;
59008;SDS011;44794;42.652;23.318;2023-06-10T02:51:47;23.80;;;17.52;;
59008;SDS011;44794;42.652;23.318;2023-06-10T02:54:13;25.33;;;18.02;;
59008;SDS011;44794;42.652;23.318;2023-06-10T02:56:38;24.42;;;18.73;;
59008;SDS011;44794;42.652;23.318;2023-06-10T02:59:06;22.42;;;18.27;;
59008;SDS011;44794;42.652;23.318;2023-06-10T03:01:33;25.30;;;19.30;;
59008;SDS011;44794;42.652;23.318;2023-06-10T03:04:01;29.58;;;19.38;;
59008;SDS011;44794;42.652;23.318;2023-06-10T03:06:27;27.85;;;19.15;;
59008;SDS011;44794;42.652;23.318;2023-06-10T03:08:53;27.45;;;19.63;;
59008;SDS011;44794;42.652;23.318;2023-06-10T03:11:19;30.25;;;20.95;;
59008;SDS011;44794;42.652;23.318;2023-06-10T03:13:44;28.58;;;20.90;;
59008;SDS011;44794;42.652;23.318;2023-06-10T03:16:10;30.00;;;20.25;;
59008;SDS011;44794;42.652;23.318;2023-06-10T03:18:37;27.05;;;21.10;;
59008;SDS011;44794;42.652;23.318;2023-06-10T03:21:02;34.15;;;20.85;;
59008;SDS011;44794;42.652;23.318;2023-06-10T03:23:28;30.20;;;21.58;;
59008;SDS011;44794;42.652;23.318;2023-06-10T03:25:54;28.90;;;20.83;;
59008;SDS011;44794;42.652;23.318;2023-06-10T03:28:20;31.55;;;21.42;;
59008;SDS011;44794;42.652;23.318;2023-06-10T03:30:46;27.23;;;21.27;;
59008;SDS011;44794;42.652;23.318;2023-06-10T03:33:12;26.83;;;20.45;;
59008;SDS011;44794;42.652;23.318;2023-06-10T03:35:39;30.35;;;20.83;;
59008;SDS011;44794;42.652;23.318;2023-06-10T03:38:05;26.90;;;18.73;;
59008;SDS011;44794;42.652;23.318;2023-06-10T03:40:31;25.25;;;18.85;;
59008;SDS011;44794;42.652;23.318;2023-06-10T03:42:57;27.20;;;19.63;;
59008;SDS011;44794;42.652;23.318;2023-06-10T03:45:23;29.08;;;18.88;;
59008;SDS011;44794;42.652;23.318;2023-06-10T03:47:49;26.48;;;19.00;;
59008;SDS011;44794;42.652;23.318;2023-06-10T03:50:15;25.30;;;18.25;;
59008;SDS011;44794;42.652;23.318;2023-06-10T03:52:41;26.92;;;19.00;;
59008;SDS011;44794;42.652;23.318;2023-06-10T03:55:06;27.55;;;20.77;;
59008;SDS011;44794;42.652;23.318;2023-06-10T03:57:32;28.63;;;20.08;;
59008;SDS011;44794;42.652;23.318;2023-06-10T03:59:58;24.25;;;18.90;;
59008;SDS011;44794;42.652;23.318;2023-06-10T04:02:23;24.35;;;17.40;;
59008;SDS011;44794;42.652;23.318;2023-06-10T04:04:49;24.23;;;16.80;;
59008;SDS011;44794;42.652;23.318;2023-06-10T04:07:16;23.67;;;15.77;;
59008;SDS011;44794;42.652;23.318;2023-06-10T04:09:44;25.20;;;16.67;;
59008;SDS011;44794;42.652;23.318;2023-06-10T04:12:09;19.33;;;15.43;;
59008;SDS011;44794;42.652;23.318;2023-06-10T04:14:35;21.42;;;15.70;;
59008;SDS011;44794;42.652;23.318;2023-06-10T04:17:02;20.42;;;15.07;;
59008;SDS011;44794;42.652;23.318;2023-06-10T04:19:31;20.30;;;15.32;;
59008;SDS011;44794;42.652;23.318;2023-06-10T04:21:57;18.67;;;14.45;;
59008;SDS011;44794;42.652;23.318;2023-06-10T04:24:22;22.05;;;16.17;;
59008;SDS011;44794;42.652;23.318;2023-06-10T04:26:48;24.73;;;15.68;;
59008;SDS011;44794;42.652;23.318;2023-06-10T04:29:13;21.67;;;16.02;;
59008;SDS011;44794;42.652;23.318;2023-06-10T04:31:39;24.05;;;16.35;;
59008;SDS011;44794;42.652;23.318;2023-06-10T04:34:04;33.50;;;22.17;;
59008;SDS011;44794;42.652;23.318;2023-06-10T04:36:30;30.98;;;22.52;;
59008;SDS011;44794;42.652;23.318;2023-06-10T04:38:55;29.60;;;22.50;;
59008;SDS011;44794;42.652;23.318;2023-06-10T04:41:20;28.77;;;23.00;;
59008;SDS011;44794;42.652;23.318;2023-06-10T04:43:47;29.45;;;21.75;;
59008;SDS011;44794;42.652;23.318;2023-06-10T04:46:12;32.15;;;22.80;;
59008;SDS011;44794;42.652;23.318;2023-06-10T04:48:38;32.17;;;23.15;;
59008;SDS011;44794;42.652;23.318;2023-06-10T04:51:04;28.85;;;21.90;;
59008;SDS011;44794;42.652;23.318;2023-06-10T04:53:30;27.60;;;21.08;;
59008;SDS011;44794;42.652;23.318;2023-06-10T04:55:56;28.90;;;22.13;;
59008;SDS011;44794;42.652;23.318;2023-06-10T04:58:22;30.30;;;21.10;;
59008;SDS011;44794;42.652;23.318;2023-06-10T05:00:48;29.23;;;19.90;;
59008;SDS011;44794;42.652;23.318;2023-06-10T05:03:14;28.45;;;20.73;;
59008;SDS011;44794;42.652;23.318;2023-06-10T05:05:39;24.00;;;19.15;;
59008;SDS011;44794;42.652;23.318;2023-06-10T05:08:05;27.95;;;21.25;;
59008;SDS011;44794;42.652;23.318;2023-06-10T05:10:30;29.45;;;20.75;;
59008;SDS011;44794;42.652;23.318;2023-06-10T05:12:57;27.15;;;20.20;;
59008;SDS011;44794;42.652;23.318;2023-06-10T05:15:23;28.65;;;20.38;;
59008;SDS011;44794;42.652;23.318;2023-06-10T05:17:49;29.10;;;20.73;;
59008;SDS011;44794;42.652;23.318;2023-06-10T05:20:15;32.90;;;21.73;;
59008;SDS011;44794;42.652;23.318;2023-06-10T05:22:41;27.95;;;20.90;;
59008;SDS011;44794;42.652;23.318;2023-06-10T05:25:06;30.08;;;20.95;;
59008;SDS011;44794;42.652;23.318;2023-06-10T05:27:32;27.90;;;20.90;;
59008;SDS011;44794;42.652;23.318;2023-06-10T05:29:58;28.38;;;22.05;;
59008;SDS011;44794;42.652;23.318;2023-06-10T05:32:23;27.00;;;21.50;;
59008;SDS011;44794;42.652;23.318;2023-06-10T05:34:49;28.80;;;22.02;;
59008;SDS011;44794;42.652;23.318;2023-06-10T05:37:14;27.45;;;21.30;;
59008;SDS011;44794;42.652;23.318;2023-06-10T05:39:40;26.98;;;21.58;;
59008;SDS011;44794;42.652;23.318;2023-06-10T05:42:06;27.75;;;20.65;;
59008;SDS011;44794;42.652;23.318;2023-06-10T05:44:32;26.60;;;20.35;;
59008;SDS011;44794;42.652;23.318;2023-06-10T05:46:58;23.55;;;18.67;;
59008;SDS011;44794;42.652;23.318;2023-06-10T05:49:23;27.38;;;19.00;;
59008;SDS011;44794;42.652;23.318;2023-06-10T05:51:49;23.92;;;16.13;;
59008;SDS011;44794;42.652;23.318;2023-06-10T05:54:14;17.88;;;14.02;;
59008;SDS011;44794;42.652;23.318;2023-06-10T05:56:40;15.80;;;13.63;;
59008;SDS011;44794;42.652;23.318;2023-06-10T05:59:05;18.33;;;13.85;;
59008;SDS011;44794;42.652;23.318;2023-06-10T06:01:31;17.80;;;13.68;;
59008;SDS011;44794;42.652;23.318;2023-06-10T06:03:56;19.48;;;14.35;;
59008;SDS011;44794;42.652;23.318;2023-06-10T06:06:22;21.85;;;14.95;;
59008;SDS011;44794;42.652;23.318;2023-06-10T06:08:48;19.33;;;15.73;;
59008;SDS011;44794;42.652;23.318;2023-06-10T06:11:13;23.55;;;16.92;;
59008;SDS011;44794;42.652;23.318;2023-06-10T06:13:39;25.15;;;16.60;;
59008;SDS011;44794;42.652;23.318;2023-06-10T06:16:04;18.95;;;16.02;;
59008;SDS011;44794;42.652;23.318;2023-06-10T06:18:29;19.20;;;15.90;;
59008;SDS011;44794;42.652;23.318;2023-06-10T06:20:55;20.42;;;16.00;;
59008;SDS011;44794;42.652;23.318;2023-06-10T06:23:20;22.88;;;16.45;;
59008;SDS011;44794;42.652;23.318;2023-06-10T06:25:46;21.15;;;16.73;;
59008;SDS011;44794;42.652;23.318;2023-06-10T06:28:11;19.90;;;16.30;;
59008;SDS011;44794;42.652;23.318;2023-06-10T06:30:37;23.80;;;14.90;;
59008;SDS011;44794;42.652;23.318;2023-06-10T06:33:02;16.83;;;14.68;;
59008;SDS011;44794;42.652;23.318;2023-06-10T06:35:30;15.43;;;13.07;;
59008;SDS011;44794;42.652;23.318;2023-06-10T06:37:57;21.65;;;12.80;;
59008;SDS011;44794;42.652;23.318;2023-06-10T06:40:23;14.45;;;12.68;;
59008;SDS011;44794;42.652;23.318;2023-06-10T06:42:49;19.52;;;12.35;;
59008;SDS011;44794;42.652;23.318;2023-06-10T06:45:14;15.60;;;11.15;;
59008;SDS011;44794;42.652;23.318;2023-06-10T06:47:40;15.23;;;11.13;;
59008;SDS011;44794;42.652;23.318;2023-06-10T06:50:05;13.82;;;9.63;;
59008;SDS011;44794;42.652;23.318;2023-06-10T06:52:31;14.65;;;9.85;;
59008;SDS011;44794;42.652;23.318;2023-06-10T06:54:56;18.42;;;9.48;;
59008;SDS011;44794;42.652;23.318;2023-06-10T06:57:22;12.32;;;9.70;;
59008;SDS011;44794;42.652;23.318;2023-06-10T06:59:48;12.63;;;8.43;;
59008;SDS011;44794;42.652;23.318;2023-06-10T07:02:13;15.88;;;9.05;;
59008;SDS011;44794;42.652;23.318;2023-06-10T07:04:39;10.55;;;9.07;;
59008;SDS011;44794;42.652;23.318;2023-06-10T07:07:07;13.60;;;9.00;;
59008;SDS011;44794;42.652;23.318;2023-06-10T07:09:33;13.90;;;8.68;;
59008;SDS011;44794;42.652;23.318;2023-06-10T07:11:58;13.00;;;8.65;;
59008;SDS011;44794;42.652;23.318;2023-06-10T07:14:24;12.23;;;8.55;;
59008;SDS011;44794;42.652;23.318;2023-06-10T07:16:49;13.73;;;8.68;;
59008;SDS011;44794;42.652;23.318;2023-06-10T07:19:15;12.02;;;7.82;;
59008;SDS011;44794;42.652;23.318;2023-06-10T07:21:40;9.63;;;6.70;;
59008;SDS011;44794;42.652;23.318;2023-06-10T07:24:05;9.25;;;6.75;;
59008;SDS011;44794;42.652;23.318;2023-06-10T07:26:31;8.88;;;6.28;;
59008;SDS011;44794;42.652;23.318;2023-06-10T07:28:56;9.77;;;6.35;;
59008;SDS011;44794;42.652;23.318;2023-06-10T07:31:22;10.82;;;5.75;;
59008;SDS011;44794;42.652;23.318;2023-06-10T07:33:48;8.07;;;4.90;;
59008;SDS011;44794;42.652;23.318;2023-06-10T07:36:13;10.45;;;5.72;;
59008;SDS011;44794;42.652;23.318;2023-06-10T07:38:39;7.90;;;5.95;;
59008;SDS011;44794;42.652;23.318;2023-06-10T07:41:07;9.65;;;6.32;;
59008;SDS011;44794;42.652;23.318;2023-06-10T07:43:32;9.57;;;5.78;;
59008;SDS011;44794;42.652;23.318;2023-06-10T07:45:58;8.95;;;6.00;;
59008;SDS011;44794;42.652;23.318;2023-06-10T07:48:24;6.80;;;5.60;;
59008;SDS011;44794;42.652;23.318;2023-06-10T07:50:49;11.23;;;5.85;;
59008;SDS011;44794;42.652;23.318;2023-06-10T07:53:15;8.27;;;5.28;;
59008;SDS011;44794;42.652;23.318;2023-06-10T07:55:40;9.98;;;6.20;;
59008;SDS011;44794;42.652;23.318;2023-06-10T07:58:06;14.13;;;10.10;;
59008;SDS011;44794;42.652;23.318;2023-06-10T08:00:31;12.55;;;7.97;;
59008;SDS011;44794;42.652;23.318;2023-06-10T08:02:57;8.18;;;6.35;;
59008;SDS011;44794;42.652;23.318;2023-06-10T08:05:22;9.85;;;6.05;;
59008;SDS011;44794;42.652;23.318;2023-06-10T08:07:48;8.27;;;5.90;;
59008;SDS011;44794;42.652;23.318;2023-06-10T08:10:13;11.70;;;6.75;;
59008;SDS011;44794;42.652;23.318;2023-06-10T08:12:39;17.15;;;9.45;;
59008;SDS011;44794;42.652;23.318;2023-06-10T08:15:04;13.85;;;5.78;;
59008;SDS011;44794;42.652;23.318;2023-06-10T08:17:30;6.90;;;5.22;;
59008;SDS011;44794;42.652;23.318;2023-06-10T08:19:56;9.98;;;6.05;;
59008;SDS011;44794;42.652;23.318;2023-06-10T08:22:22;8.48;;;7.38;;
59008;SDS011;44794;42.652;23.318;2023-06-10T08:24:47;8.43;;;7.13;;
59008;SDS011;44794;42.652;23.318;2023-06-10T08:27:12;6.50;;;5.70;;
59008;SDS011;44794;42.652;23.318;2023-06-10T08:29:38;7.32;;;5.60;;
59008;SDS011;44794;42.652;23.318;2023-06-10T08:32:04;11.65;;;5.70;;
59008;SDS011;44794;42.652;23.318;2023-06-10T08:34:30;8.07;;;5.68;;
59008;SDS011;44794;42.652;23.318;2023-06-10T08:36:55;7.07;;;5.30;;
59008;SDS011;44794;42.652;23.318;2023-06-10T08:39:21;7.25;;;5.50;;
59008;SDS011;44794;42.652;23.318;2023-06-10T08:44:29;7.00;;;4.80;;
59008;SDS011;44794;42.652;23.318;2023-06-10T08:46:56;9.43;;;5.20;;
59008;SDS011;44794;42.652;23.318;2023-06-10T08:49:24;7.50;;;4.68;;
59008;SDS011;44794;42.652;23.318;2023-06-10T08:51:52;7.15;;;4.45;;
59008;SDS011;44794;42.652;23.318;2023-06-10T08:54:22;7.03;;;4.90;;
59008;SDS011;44794;42.652;23.318;2023-06-10T08:56:52;10.75;;;5.78;;
59008;SDS011;44794;42.652;23.318;2023-06-10T08:59:20;7.38;;;5.03;;
59008;SDS011;44794;42.652;23.318;2023-06-10T09:01:46;7.72;;;4.82;;
59008;SDS011;44794;42.652;23.318;2023-06-10T09:04:13;8.57;;;4.40;;
59008;SDS011;44794;42.652;23.318;2023-06-10T09:06:39;6.93;;;5.10;;
59008;SDS011;44794;42.652;23.318;2023-06-10T09:09:06;6.78;;;4.65;;
59008;SDS011;44794;42.652;23.318;2023-06-10T09:11:32;7.28;;;5.35;;
59008;SDS011;44794;42.652;23.318;2023-06-10T09:13:58;8.20;;;5.45;;
59008;SDS011;44794;42.652;23.318;2023-06-10T09:16:24;7.53;;;4.88;;
59008;SDS011;44794;42.652;23.318;2023-06-10T09:18:50;6.90;;;5.35;;
59008;SDS011;44794;42.652;23.318;2023-06-10T09:21:22;7.00;;;4.95;;
59008;SDS011;44794;42.652;23.318;2023-06-10T09:23:48;5.47;;;4.30;;
59008;SDS011;44794;42.652;23.318;2023-06-10T09:26:15;10.27;;;5.00;;
59008;SDS011;44794;42.652;23.318;2023-06-10T09:28:44;5.40;;;4.68;;
59008;SDS011;44794;42.652;23.318;2023-06-10T09:31:12;9.00;;;4.68;;
59008;SDS011;44794;42.652;23.318;2023-06-10T09:33:39;8.32;;;5.05;;
59008;SDS011;44794;42.652;23.318;2023-06-10T09:36:05;8.98;;;4.75;;
59008;SDS011;44794;42.652;23.318;2023-06-10T09:38:32;9.13;;;5.15;;
59008;SDS011;44794;42.652;23.318;2023-06-10T09:40:58;10.52;;;5.10;;
59008;SDS011;44794;42.652;23.318;2023-06-10T09:43:39;6.18;;;4.60;;
59008;SDS011;44794;42.652;23.318;2023-06-10T09:46:05;7.28;;;4.55;;
59008;SDS011;44794;42.652;23.318;2023-06-10T09:48:34;5.60;;;4.75;;
59008;SDS011;44794;42.652;23.318;2023-06-10T09:51:02;7.30;;;4.70;;
59008;SDS011;44794;42.652;23.318;2023-06-10T09:53:34;5.10;;;4.53;;
59008;SDS011;44794;42.652;23.318;2023-06-10T09:56:00;7.05;;;4.80;;
59008;SDS011;44794;42.652;23.318;2023-06-10T09:58:35;7.68;;;4.10;;
59008;SDS011;44794;42.652;23.318;2023-06-10T10:01:11;6.45;;;4.53;;
59008;SDS011;44794;42.652;23.318;2023-06-10T10:03:48;6.97;;;4.03;;
59008;SDS011;44794;42.652;23.318;2023-06-10T10:06:15;9.10;;;4.45;;
59008;SDS011;44794;42.652;23.318;2023-06-10T10:08:42;4.75;;;4.22;;
59008;SDS011;44794;42.652;23.318;2023-06-10T10:11:08;6.45;;;4.07;;
59008;SDS011;44794;42.652;23.318;2023-06-10T10:13:34;5.15;;;3.95;;
59008;SDS011;44794;42.652;23.318;2023-06-10T10:16:01;6.65;;;4.53;;
59008;SDS011;44794;42.652;23.318;2023-06-10T10:18:31;6.45;;;4.20;;
59008;SDS011;44794;42.652;23.318;2023-06-10T10:21:00;5.30;;;4.00;;
59008;SDS011;44794;42.652;23.318;2023-06-10T10:23:36;6.97;;;4.35;;
59008;SDS011;44794;42.652;23.318;2023-06-10T10:26:09;6.88;;;4.28;;
59008;SDS011;44794;42.652;23.318;2023-06-10T10:28:41;12.15;;;4.65;;
59008;SDS011;44794;42.652;23.318;2023-06-10T10:31:10;4.95;;;4.45;;
59008;SDS011;44794;42.652;23.318;2023-06-10T10:33:42;7.20;;;4.47;;
59008;SDS011;44794;42.652;23.318;2023-06-10T10:36:15;6.07;;;3.90;;
59008;SDS011;44794;42.652;23.318;2023-06-10T10:38:42;6.85;;;4.30;;
59008;SDS011;44794;42.652;23.318;2023-06-10T10:41:10;6.10;;;4.22;;
59008;SDS011;44794;42.652;23.318;2023-06-10T10:43:37;6.85;;;4.55;;
59008;SDS011;44794;42.652;23.318;2023-06-10T10:46:11;7.43;;;3.95;;
59008;SDS011;44794;42.652;23.318;2023-06-10T10:48:38;5.72;;;3.78;;
59008;SDS011;44794;42.652;23.318;2023-06-10T10:51:06;7.32;;;4.38;;
59008;SDS011;44794;42.652;23.318;2023-06-10T10:53:32;9.32;;;4.35;;
59008;SDS011;44794;42.652;23.318;2023-06-10T10:56:19;5.28;;;4.38;;
59008;SDS011;44794;42.652;23.318;2023-06-10T10:59:01;6.30;;;3.92;;
59008;SDS011;44794;42.652;23.318;2023-06-10T11:01:39;6.60;;;3.67;;
59008;SDS011;44794;42.652;23.318;2023-06-10T11:04:07;8.77;;;4.65;;
59008;SDS011;44794;42.652;23.318;2023-06-10T11:06:34;4.22;;;3.53;;
59008;SDS011;44794;42.652;23.318;2023-06-10T11:09:00;16.17;;;4.22;;
59008;SDS011;44794;42.652;23.318;2023-06-10T11:11:26;6.25;;;4.00;;
59008;SDS011;44794;42.652;23.318;2023-06-10T11:16:38;8.63;;;3.95;;
59008;SDS011;44794;42.652;23.318;2023-06-10T11:19:05;6.15;;;3.75;;
59008;SDS011;44794;42.652;23.318;2023-06-10T11:21:31;6.07;;;4.38;;
59008;SDS011;44794;42.652;23.318;2023-06-10T11:23:57;8.77;;;4.55;;
59008;SDS011;44794;42.652;23.318;2023-06-10T11:31:22;6.32;;;5.10;;
59008;SDS011;44794;42.652;23.318;2023-06-10T11:33:58;7.05;;;4.90;;
59008;SDS011;44794;42.652;23.318;2023-06-10T11:36:25;9.48;;;5.30;;
59008;SDS011;44794;42.652;23.318;2023-06-10T11:38:58;6.30;;;5.03;;
59008;SDS011;44794;42.652;23.318;2023-06-10T11:41:25;5.80;;;4.43;;
59008;SDS011;44794;42.652;23.318;2023-06-10T11:43:52;6.22;;;5.05;;
59008;SDS011;44794;42.652;23.318;2023-06-10T11:46:18;6.53;;;5.00;;
59008;SDS011;44794;42.652;23.318;2023-06-10T11:48:53;5.50;;;4.80;;
59008;SDS011;44794;42.652;23.318;2023-06-10T11:51:20;7.80;;;4.75;;
59008;SDS011;44794;42.652;23.318;2023-06-10T11:53:46;15.82;;;5.68;;
59008;SDS011;44794;42.652;23.318;2023-06-10T11:56:12;8.32;;;5.18;;
59008;SDS011;44794;42.652;23.318;2023-06-10T11:58:39;8.20;;;4.60;;
59008;SDS011;44794;42.652;23.318;2023-06-10T12:01:08;5.38;;;4.75;;
59008;SDS011;44794;42.652;23.318;2023-06-10T12:03:37;7.28;;;4.75;;
59008;SDS011;44794;42.652;23.318;2023-06-10T12:06:04;9.27;;;5.03;;
59008;SDS011;44794;42.652;23.318;2023-06-10T12:08:30;6.95;;;4.97;;
59008;SDS011;44794;42.652;23.318;2023-06-10T12:10:56;8.05;;;5.30;;
59008;SDS011;44794;42.652;23.318;2023-06-10T12:13:23;8.20;;;5.05;;
59008;SDS011;44794;42.652;23.318;2023-06-10T12:15:51;8.90;;;5.10;;
59008;SDS011;44794;42.652;23.318;2023-06-10T12:18:20;7.53;;;5.05;;
59008;SDS011;44794;42.652;23.318;2023-06-10T12:20:47;9.07;;;4.88;;
59008;SDS011;44794;42.652;23.318;2023-06-10T12:23:14;5.70;;;4.60;;
59008;SDS011;44794;42.652;23.318;2023-06-10T12:25:43;8.48;;;5.10;;
59008;SDS011;44794;42.652;23.318;2023-06-10T12:28:16;6.30;;;4.72;;
59008;SDS011;44794;42.652;23.318;2023-06-10T12:30:42;6.82;;;4.50;;
59008;SDS011;44794;42.652;23.318;2023-06-10T12:33:17;6.85;;;4.70;;
59008;SDS011;44794;42.652;23.318;2023-06-10T12:35:48;6.40;;;4.30;;
59008;SDS011;44794;42.652;23.318;2023-06-10T12:38:14;4.88;;;4.25;;
59008;SDS011;44794;42.652;23.318;2023-06-10T12:40:46;7.60;;;4.10;;
59008;SDS011;44794;42.652;23.318;2023-06-10T12:43:12;4.60;;;3.97;;
59008;SDS011;44794;42.652;23.318;2023-06-10T12:45:38;5.85;;;4.18;;
59008;SDS011;44794;42.652;23.318;2023-06-10T12:48:11;7.85;;;4.20;;
59008;SDS011;44794;42.652;23.318;2023-06-10T12:50:42;5.78;;;4.10;;
59008;SDS011;44794;42.652;23.318;2023-06-10T12:53:08;5.63;;;4.40;;
59008;SDS011;44794;42.652;23.318;2023-06-10T12:55:34;6.68;;;4.28;;
59008;SDS011;44794;42.652;23.318;2023-06-10T12:58:00;5.20;;;4.28;;
59008;SDS011;44794;42.652;23.318;2023-06-10T13:00:26;5.57;;;4.28;;
59008;SDS011;44794;42.652;23.318;2023-06-10T13:02:55;8.65;;;4.45;;
59008;SDS011;44794;42.652;23.318;2023-06-10T13:05:21;11.00;;;4.43;;
59008;SDS011;44794;42.652;23.318;2023-06-10T13:07:47;7.78;;;4.53;;
59008;SDS011;44794;42.652;23.318;2023-06-10T13:10:15;6.75;;;4.60;;
59008;SDS011;44794;42.652;23.318;2023-06-10T13:12:42;6.93;;;3.95;;
59008;SDS011;44794;42.652;23.318;2023-06-10T13:15:07;6.15;;;4.55;;
59008;SDS011;44794;42.652;23.318;2023-06-10T13:17:33;6.70;;;4.75;;
59008;SDS011;44794;42.652;23.318;2023-06-10T13:20:02;10.40;;;4.50;;
59008;SDS011;44794;42.652;23.318;2023-06-10T13:22:30;4.05;;;3.65;;
59008;SDS011;44794;42.652;23.318;2023-06-10T13:24:57;6.22;;;4.35;;
59008;SDS011;44794;42.652;23.318;2023-06-10T13:27:30;7.93;;;4.35;;
59008;SDS011;44794;42.652;23.318;2023-06-10T13:29:56;6.70;;;4.65;;
59008;SDS011;44794;42.652;23.318;2023-06-10T13:32:21;7.38;;;4.70;;
59008;SDS011;44794;42.652;23.318;2023-06-10T13:34:47;6.45;;;4.57;;
59008;SDS011;44794;42.652;23.318;2023-06-10T13:37:14;10.45;;;5.00;;
59008;SDS011;44794;42.652;23.318;2023-06-10T13:39:40;8.55;;;5.32;;
59008;SDS011;44794;42.652;23.318;2023-06-10T13:42:06;9.68;;;5.45;;
59008;SDS011;44794;42.652;23.318;2023-06-10T13:44:32;9.45;;;5.40;;
59008;SDS011;44794;42.652;23.318;2023-06-10T13:47:01;11.43;;;5.22;;
59008;SDS011;44794;42.652;23.318;2023-06-10T13:49:26;8.15;;;5.00;;
59008;SDS011;44794;42.652;23.318;2023-06-10T13:51:52;9.02;;;5.07;;
59008;SDS011;44794;42.652;23.318;2023-06-10T13:54:17;8.75;;;4.68;;
59008;SDS011;44794;42.652;23.318;2023-06-10T13:56:43;6.65;;;4.75;;
59008;SDS011;44794;42.652;23.318;2023-06-10T13:59:08;8.20;;;5.05;;
59008;SDS011;44794;42.652;23.318;2023-06-10T14:01:34;9.38;;;5.80;;
59008;SDS011;44794;42.652;23.318;2023-06-10T14:03:59;10.25;;;4.97;;
59008;SDS011;44794;42.652;23.318;2023-06-10T14:06:25;8.93;;;5.35;;
59008;SDS011;44794;42.652;23.318;2023-06-10T14:08:51;6.75;;;4.85;;
59008;SDS011;44794;42.652;23.318;2023-06-10T14:11:19;6.32;;;4.93;;
59008;SDS011;44794;42.652;23.318;2023-06-10T14:13:45;8.57;;;4.78;;
59008;SDS011;44794;42.652;23.318;2023-06-10T14:16:11;9.13;;;5.10;;
59008;SDS011;44794;42.652;23.318;2023-06-10T14:18:37;9.30;;;5.18;;
59008;SDS011;44794;42.652;23.318;2023-06-10T14:21:02;8.23;;;4.35;;
59008;SDS011;44794;42.652;23.318;2023-06-10T14:23:27;6.45;;;4.68;;
59008;SDS011;44794;42.652;23.318;2023-06-10T14:25:53;7.05;;;4.57;;
59008;SDS011;44794;42.652;23.318;2023-06-10T14:28:18;6.20;;;4.53;;
59008;SDS011;44794;42.652;23.318;2023-06-10T14:30:44;7.45;;;4.72;;